Audrey — PD9331 — position and weather

sailwx.info

Track history (hours):
 
Tides and Currents Weather Stations Pressure Air Temp Water Temp Dewpoint Dewpoint Depression Visibility Wind Speed Wind Dir Waves Ship Positions

Audrey

Last reported at 2017-Oct-18 20:30 UTC. Time now 2017-Oct-18 20:38 UTC.
Position N 51°27' E 004°14'.

Length 85 m; draft 1.5 m.

Type: Wing in ground effect craft. MMSI: 244660106.

Date/timePositionNaut miles runAvg speedWind from/ knotsBaromVisibWave heightAir tempDewpointWater temp
2017-Oct-18 20:30N 51°27' E 004°14'0 0.0
2017-Oct-18 20:00N 51°27' E 004°14'1 1.1
2017-Oct-18 19:28N 51°27' E 004°14'3 6.2
2017-Oct-18 19:00N 51°24' E 004°14'4 7.2
2017-Oct-18 18:30N 51°21' E 004°18'1 1.7
2017-Oct-18 18:00N 51°22' E 004°17'0 0.0
2017-Oct-18 17:30N 51°22' E 004°17'0 0.0
2017-Oct-18 17:00N 51°22' E 004°17'0 0.0
2017-Oct-18 16:30N 51°22' E 004°17'0 0.0
2017-Oct-18 16:00N 51°22' E 004°17'0 0.0
2017-Oct-18 15:30N 51°22' E 004°17'0 0.0
2017-Oct-18 14:59N 51°22' E 004°17'0 0.0
2017-Oct-18 14:00N 51°22' E 004°17'0 0.2
2017-Oct-18 13:30N 51°22' E 004°17'1 1.1
2017-Oct-18 13:00N 51°22' E 004°18'4 8.0
2017-Oct-18 12:29N 51°25' E 004°14'2 4.3
2017-Oct-18 11:57N 51°27' E 004°14'4 8.2
2017-Oct-18 11:30N 51°31' E 004°13'5 8.4
2017-Oct-18 10:53N 51°36' E 004°11'5 8.7
2017-Oct-18 10:20N 51°39' E 004°17'4 8.8
2017-Oct-18 09:53N 51°41' E 004°23'1 3.1
2017-Oct-18 09:27N 51°42' E 004°25'4 8.4
2017-Oct-18 09:00N 51°42' E 004°31'4 9.0
2017-Oct-18 08:30N 51°43' E 004°37'4 8.1
2017-Oct-18 08:01N 51°47' E 004°37'2 4.0
2017-Oct-18 07:31N 51°49' E 004°40'0 0.0
2017-Oct-18 07:00N 51°49' E 004°40'0 0.0
2017-Oct-18 06:30N 51°49' E 004°40'1 2.1
2017-Oct-18 06:00N 51°49' E 004°41'4 8.7
2017-Oct-18 05:30N 51°49' E 004°48'3 6.3
2017-Oct-18 05:00N 51°49' E 004°53'0 0.7
2017-Oct-18 04:30N 51°49' E 004°53'0 0.0
2017-Oct-18 04:00N 51°49' E 004°53'0 0.0
2017-Oct-18 03:30N 51°49' E 004°53'0 0.0
2017-Oct-18 03:00N 51°49' E 004°53'0 0.0
2017-Oct-18 02:30N 51°49' E 004°53'0 0.0
2017-Oct-18 02:00N 51°49' E 004°53'0 0.0
2017-Oct-18 01:30N 51°49' E 004°53'0 0.0
2017-Oct-18 01:00N 51°49' E 004°53'0 0.0
2017-Oct-18 00:30N 51°49' E 004°53'0 0.0
2017-Oct-18 00:00N 51°49' E 004°53'0 0.0
2017-Oct-17 23:30N 51°49' E 004°53'0 0.0
2017-Oct-17 23:00N 51°49' E 004°53'0 0.0
2017-Oct-17 22:30N 51°49' E 004°53'0 0.0
2017-Oct-17 22:00N 51°49' E 004°53'0 0.0
2017-Oct-17 21:30N 51°49' E 004°53'0 0.0
2017-Oct-17 21:00N 51°49' E 004°53'0 0.0
2017-Oct-17 20:30N 51°49' E 004°53'0 0.0
2017-Oct-17 20:00N 51°49' E 004°53'0 0.0
2017-Oct-17 19:30N 51°49' E 004°53'0 0.0
2017-Oct-17 19:00N 51°49' E 004°53'0 0.0
2017-Oct-17 18:30N 51°49' E 004°53'0 0.0
2017-Oct-17 18:00N 51°49' E 004°53'0 0.0
2017-Oct-17 17:30N 51°49' E 004°53'0 0.0
2017-Oct-17 17:00N 51°49' E 004°53'0 0.0
2017-Oct-17 16:30N 51°49' E 004°53'0 0.0
2017-Oct-17 16:00N 51°49' E 004°53'0 0.0
2017-Oct-17 15:30N 51°49' E 004°53'0 0.0
2017-Oct-17 15:00N 51°49' E 004°53'0 0.0
2017-Oct-17 14:30N 51°49' E 004°53'0 0.0
2017-Oct-17 14:00N 51°49' E 004°53'0 0.0
2017-Oct-17 13:29N 51°49' E 004°53'0 0.0
2017-Oct-17 13:00N 51°49' E 004°53'0 0.0
2017-Oct-17 12:30N 51°49' E 004°53'0 0.0
2017-Oct-17 12:00N 51°49' E 004°53'0 0.0
2017-Oct-17 11:30N 51°49' E 004°53'0 0.0
2017-Oct-17 11:00N 51°49' E 004°53'0 0.0
2017-Oct-17 10:24N 51°49' E 004°53'0 0.0
2017-Oct-17 10:00N 51°49' E 004°53'0 0.0
2017-Oct-17 09:30N 51°49' E 004°53'0 0.0
2017-Oct-17 09:00N 51°49' E 004°53'0 0.0
2017-Oct-17 08:28N 51°49' E 004°53'0 0.0
2017-Oct-17 08:00N 51°49' E 004°53'0 0.0
2017-Oct-17 07:29N 51°49' E 004°53'0 0.0
2017-Oct-17 07:00N 51°49' E 004°53'0 0.0
2017-Oct-17 06:27N 51°49' E 004°53'0 0.0
2017-Oct-17 06:00N 51°49' E 004°53'0 0.0
2017-Oct-17 05:30N 51°49' E 004°53'0 0.0
2017-Oct-17 04:59N 51°49' E 004°53'0 0.0
2017-Oct-17 04:30N 51°49' E 004°53'0 0.0
2017-Oct-17 04:00N 51°49' E 004°53'0 0.0
2017-Oct-17 03:30N 51°49' E 004°53'0 0.0
2017-Oct-17 03:00N 51°49' E 004°53'0 0.0
2017-Oct-17 02:30N 51°49' E 004°53'0 0.0
2017-Oct-17 02:00N 51°49' E 004°53'0 0.0
2017-Oct-17 01:30N 51°49' E 004°53'0 0.0
2017-Oct-17 01:00N 51°49' E 004°53'0 0.0
2017-Oct-17 00:30N 51°49' E 004°53'0 0.0
2017-Oct-17 00:00N 51°49' E 004°53'0 0.0
2017-Oct-16 23:30N 51°49' E 004°53'0 0.0
2017-Oct-16 23:00N 51°49' E 004°53'0 0.0
2017-Oct-16 22:30N 51°49' E 004°53'0 0.0
2017-Oct-16 22:00N 51°49' E 004°53'0 0.0
2017-Oct-16 21:30N 51°49' E 004°53'0 0.0
2017-Oct-16 21:00N 51°49' E 004°53'0 0.0
2017-Oct-16 20:30N 51°49' E 004°53'0 0.0
2017-Oct-16 20:00N 51°49' E 004°53'0 0.0
2017-Oct-16 19:30N 51°49' E 004°53'0 0.0
2017-Oct-16 19:00N 51°49' E 004°53'0 0.0
2017-Oct-16 18:30N 51°49' E 004°53'0 0.0
2017-Oct-16 18:00N 51°49' E 004°53'0 0.0
2017-Oct-16 17:30N 51°49' E 004°53'0 0.0
2017-Oct-16 17:00N 51°49' E 004°53'0 0.0
2017-Oct-16 16:30N 51°49' E 004°53'0 0.0
2017-Oct-16 16:00N 51°49' E 004°53'0 0.0
2017-Oct-16 15:30N 51°49' E 004°53'0 0.0
2017-Oct-16 15:00N 51°49' E 004°53'0 0.0
2017-Oct-16 14:00N 51°49' E 004°53'0 0.0
2017-Oct-16 13:30N 51°49' E 004°53'0 0.0
2017-Oct-16 13:00N 51°49' E 004°53'0 0.0
2017-Oct-16 12:30N 51°49' E 004°53'0 0.0
2017-Oct-16 12:00N 51°49' E 004°53'0 0.0
2017-Oct-16 11:30N 51°49' E 004°53'0 0.0
2017-Oct-16 11:00N 51°49' E 004°53'0 0.0
2017-Oct-16 10:30N 51°49' E 004°53'0 0.0
2017-Oct-16 10:00N 51°49' E 004°53'0 0.0
2017-Oct-16 09:30N 51°49' E 004°53'0 0.0
2017-Oct-16 09:00N 51°49' E 004°53'0 0.0
2017-Oct-16 08:30N 51°49' E 004°53'0 0.0
2017-Oct-16 08:00N 51°49' E 004°53'0 0.0
2017-Oct-16 07:30N 51°49' E 004°53'0 0.0
2017-Oct-16 06:58N 51°49' E 004°53'0 0.0
2017-Oct-16 06:30N 51°49' E 004°53'0 0.0
2017-Oct-16 06:00N 51°49' E 004°53'0 0.0
2017-Oct-16 05:30N 51°49' E 004°53'0 0.0
2017-Oct-16 05:00N 51°49' E 004°53'0 0.0
2017-Oct-16 04:30N 51°49' E 004°53'0 0.0
2017-Oct-16 04:00N 51°49' E 004°53'0 0.0
2017-Oct-16 03:30N 51°49' E 004°53'0 0.0
2017-Oct-16 03:00N 51°49' E 004°53'0 0.0
2017-Oct-16 02:30N 51°49' E 004°53'0 0.0
2017-Oct-16 02:00N 51°49' E 004°53'0 0.0
2017-Oct-16 01:30N 51°49' E 004°53'0 0.0
2017-Oct-16 01:00N 51°49' E 004°53'0 0.0
2017-Oct-16 00:30N 51°49' E 004°53'0 0.0
2017-Oct-16 00:00N 51°49' E 004°53'0 0.0
2017-Oct-15 23:30N 51°49' E 004°53'0 0.0
2017-Oct-15 23:00N 51°49' E 004°53'0 0.0
2017-Oct-15 22:30N 51°49' E 004°53'0 0.0
2017-Oct-15 22:00N 51°49' E 004°53'0 0.0
2017-Oct-15 21:30N 51°49' E 004°53'0 0.0
2017-Oct-15 21:00N 51°49' E 004°53'0 0.0
2017-Oct-15 20:30N 51°49' E 004°53'0 0.0
2017-Oct-15 20:00N 51°49' E 004°53'0 0.0
2017-Oct-15 19:30N 51°49' E 004°53'0 0.0
2017-Oct-15 19:00N 51°49' E 004°53'0 0.0
2017-Oct-15 18:30N 51°49' E 004°53'0 0.0
2017-Oct-15 18:00N 51°49' E 004°53'0 0.0
2017-Oct-15 17:30N 51°49' E 004°53'0 0.0
2017-Oct-15 17:00N 51°49' E 004°53'0 0.0
2017-Oct-15 16:30N 51°49' E 004°53'0 0.0
2017-Oct-15 16:00N 51°49' E 004°53'0 0.0
2017-Oct-15 15:30N 51°49' E 004°53'0 0.0
2017-Oct-15 15:00N 51°49' E 004°53'0 0.0
2017-Oct-15 14:00N 51°49' E 004°53'0 0.0
2017-Oct-15 13:30N 51°49' E 004°53'0 0.0
2017-Oct-15 13:00N 51°49' E 004°53'0 0.0
2017-Oct-15 12:30N 51°49' E 004°53'0 0.0
2017-Oct-15 12:00N 51°49' E 004°53'0 0.0
2017-Oct-15 11:30N 51°49' E 004°53'0 0.0
2017-Oct-15 11:00N 51°49' E 004°53'0 0.0
2017-Oct-15 10:30N 51°49' E 004°53'0 0.0
2017-Oct-15 10:00N 51°49' E 004°53'0 0.0
2017-Oct-15 09:30N 51°49' E 004°53'0 0.0
2017-Oct-15 09:00N 51°49' E 004°53'0 0.0
2017-Oct-15 08:30N 51°49' E 004°53'0 0.0
2017-Oct-15 08:00N 51°49' E 004°53'0 0.0
2017-Oct-15 07:30N 51°49' E 004°53'0 0.0
2017-Oct-15 07:00N 51°49' E 004°53'0 0.0
2017-Oct-15 06:30N 51°49' E 004°53'0 0.0
2017-Oct-15 06:00N 51°49' E 004°53'0 0.0
2017-Oct-15 05:30N 51°49' E 004°53'0 0.0
2017-Oct-15 05:00N 51°49' E 004°53'0 0.0
2017-Oct-15 04:30N 51°49' E 004°53'0 0.0
2017-Oct-15 04:00N 51°49' E 004°53'0 0.0
2017-Oct-15 03:30N 51°49' E 004°53'0 0.0
2017-Oct-15 03:00N 51°49' E 004°53'0 0.0
2017-Oct-15 02:29N 51°49' E 004°53'0 0.0
2017-Oct-15 02:00N 51°49' E 004°53'0 0.0
2017-Oct-15 01:30N 51°49' E 004°53'0 0.0
2017-Oct-15 01:00N 51°49' E 004°53'0 0.0
2017-Oct-15 00:30N 51°49' E 004°53'0 0.0
2017-Oct-15 00:00N 51°49' E 004°53'0 0.0
2017-Oct-14 23:30N 51°49' E 004°53'0 0.0
2017-Oct-14 23:00N 51°49' E 004°53'0 0.0
2017-Oct-14 22:30N 51°49' E 004°53'0 0.0
2017-Oct-14 22:00N 51°49' E 004°53'0 0.0
2017-Oct-14 21:30N 51°49' E 004°53'0 0.0
2017-Oct-14 21:00N 51°49' E 004°53'0 0.0
2017-Oct-14 20:30N 51°49' E 004°53'0 0.0
2017-Oct-14 20:00N 51°49' E 004°53'0 0.0
2017-Oct-14 19:30N 51°49' E 004°53'0 0.0
2017-Oct-14 19:00N 51°49' E 004°53'0 0.0
2017-Oct-14 18:29N 51°49' E 004°53'0 0.0
2017-Oct-14 18:00N 51°49' E 004°53'0 0.0
2017-Oct-14 17:30N 51°49' E 004°53'0 0.0
2017-Oct-14 17:00N 51°49' E 004°53'0 0.0
2017-Oct-14 16:30N 51°49' E 004°53'0 0.0
2017-Oct-14 16:00N 51°49' E 004°53'0 0.0
2017-Oct-14 15:29N 51°49' E 004°53'0 0.0
2017-Oct-14 15:00N 51°49' E 004°53'0 0.0
2017-Oct-14 14:30N 51°49' E 004°53'0 0.0
2017-Oct-14 14:00N 51°49' E 004°53'0 0.0
2017-Oct-14 13:30N 51°49' E 004°53'0 0.0
2017-Oct-14 13:00N 51°49' E 004°53'0 0.0
2017-Oct-14 12:30N 51°49' E 004°53'0 0.0
2017-Oct-14 12:00N 51°49' E 004°53'0 0.0
2017-Oct-14 11:30N 51°49' E 004°53'0 0.0
2017-Oct-14 11:00N 51°49' E 004°53'0 0.0
2017-Oct-14 10:30N 51°49' E 004°53'0 0.0
2017-Oct-14 10:00N 51°49' E 004°53'0 0.0
2017-Oct-14 09:30N 51°49' E 004°53'0 0.0
2017-Oct-14 09:00N 51°49' E 004°53'0 0.0
2017-Oct-14 08:30N 51°49' E 004°53'0 0.0
2017-Oct-14 08:00N 51°49' E 004°53'0 0.0
2017-Oct-14 07:30N 51°49' E 004°53'0 0.0
2017-Oct-14 07:00N 51°49' E 004°53'0 0.0
2017-Oct-14 06:29N 51°49' E 004°53'0 0.0
2017-Oct-14 06:00N 51°49' E 004°53'0 0.0
2017-Oct-14 05:30N 51°49' E 004°53'0 0.0
2017-Oct-14 05:00N 51°49' E 004°53'0 0.0
2017-Oct-14 04:30N 51°49' E 004°53'0 0.0
2017-Oct-14 04:00N 51°49' E 004°53'0 0.0
2017-Oct-14 03:30N 51°49' E 004°53'0 0.0
2017-Oct-14 03:00N 51°49' E 004°53'0 0.0
2017-Oct-14 02:30N 51°49' E 004°53'0 0.0
2017-Oct-14 02:00N 51°49' E 004°53'0 0.0
2017-Oct-14 01:30N 51°49' E 004°53'0 0.0
2017-Oct-14 01:00N 51°49' E 004°53'0 0.0
2017-Oct-14 00:30N 51°49' E 004°53'0 0.0
2017-Oct-14 00:00N 51°49' E 004°53'0 0.0
2017-Oct-13 23:30N 51°49' E 004°53'0 0.0
2017-Oct-13 23:00N 51°49' E 004°53'0 0.0
2017-Oct-13 22:30N 51°49' E 004°53'0 0.0
2017-Oct-13 22:00N 51°49' E 004°53'0 0.0
2017-Oct-13 21:30N 51°49' E 004°53'0 0.0
2017-Oct-13 21:00N 51°49' E 004°53'0 0.0
2017-Oct-13 20:30N 51°49' E 004°53'0 0.0
2017-Oct-13 20:00N 51°49' E 004°53'0 0.0
2017-Oct-13 19:30N 51°49' E 004°53'0 0.0
2017-Oct-13 19:00N 51°49' E 004°53'0 0.0
2017-Oct-13 18:30N 51°49' E 004°53'0 0.0
2017-Oct-13 18:00N 51°49' E 004°53'0 0.0
2017-Oct-13 17:30N 51°49' E 004°53'0 0.0
2017-Oct-13 17:00N 51°49' E 004°53'0 0.0
2017-Oct-13 16:30N 51°49' E 004°53'0 0.0
2017-Oct-13 16:00N 51°49' E 004°53'0 0.0
2017-Oct-13 15:30N 51°49' E 004°53'0 0.0
2017-Oct-13 15:00N 51°49' E 004°53'0 0.0
2017-Oct-13 14:30N 51°49' E 004°53'0 0.0
2017-Oct-13 14:00N 51°49' E 004°53'0 0.2
2017-Oct-13 13:30N 51°49' E 004°53'0 0.0
2017-Oct-13 13:00N 51°49' E 004°53'0 0.0
2017-Oct-13 12:30N 51°49' E 004°53'0 0.0
2017-Oct-13 12:00N 51°49' E 004°53'0 0.0
2017-Oct-13 11:30N 51°49' E 004°53'0 0.0
2017-Oct-13 11:00N 51°49' E 004°53'0 0.0
2017-Oct-13 10:30N 51°49' E 004°53'0 0.0
2017-Oct-13 10:00N 51°49' E 004°53'2 3.9
2017-Oct-13 09:30N 51°50' E 004°56'5 8.9
2017-Oct-13 08:57N 51°49' E 005°04'4 9.2
2017-Oct-13 08:30N 51°49' E 005°10'5 9.0
2017-Oct-13 07:59N 51°49' E 005°18'4 7.0
2017-Oct-13 07:27N 51°50' E 005°24'4 9.1
2017-Oct-13 06:59N 51°53' E 005°28'5 9.6
2017-Oct-13 06:30N 51°54' E 005°36'5 9.8
2017-Oct-13 06:00N 51°53' E 005°43'5 9.7
2017-Oct-13 05:30N 51°51' E 005°51'4 7.8
2017-Oct-13 05:00N 51°52' E 005°57'4 7.3
2017-Oct-13 04:30N 51°52' E 006°03'1 2.6
2017-Oct-13 04:00N 51°53' E 006°01'0 0.0
2017-Oct-13 03:30N 51°53' E 006°01'0 0.0
2017-Oct-13 03:00N 51°53' E 006°01'0 0.0
2017-Oct-13 02:30N 51°53' E 006°01'0 0.0
2017-Oct-13 02:00N 51°53' E 006°01'0 0.0
2017-Oct-13 01:30N 51°53' E 006°01'0 0.0
2017-Oct-13 01:00N 51°53' E 006°01'0 0.0
2017-Oct-13 00:30N 51°53' E 006°01'0 0.0
2017-Oct-13 00:00N 51°53' E 006°01'0 0.0
2017-Oct-12 23:30N 51°53' E 006°01'0 0.0
2017-Oct-12 23:00N 51°53' E 006°01'0 0.0
2017-Oct-12 22:30N 51°53' E 006°01'0 0.0
2017-Oct-12 22:00N 51°53' E 006°01'0 0.0
2017-Oct-12 21:30N 51°53' E 006°01'0 0.0
2017-Oct-12 21:00N 51°53' E 006°01'0 0.0
2017-Oct-12 20:30N 51°53' E 006°01'0 0.0
2017-Oct-12 20:00N 51°53' E 006°01'0 0.0
2017-Oct-12 19:30N 51°53' E 006°01'0 0.0
2017-Oct-12 19:00N 51°53' E 006°01'0 0.0
2017-Oct-12 18:30N 51°53' E 006°01'1 1.6
2017-Oct-12 18:00N 51°54' E 006°01'4 8.0
2017-Oct-12 17:30N 51°57' E 005°57'3 5.8
2017-Oct-12 17:00N 51°59' E 006°00'3 5.7
2017-Oct-12 16:30N 52°01' E 006°04'2 4.1
2017-Oct-12 16:00N 52°01' E 006°08'3 5.4
2017-Oct-12 15:30N 52°03' E 006°08'3 6.5
2017-Oct-12 15:00N 52°06' E 006°12'2 4.3
2017-Oct-12 14:30N 52°08' E 006°11'3 1.6
2017-Oct-12 12:17N 52°10' E 006°16'2 6.7
2017-Oct-12 12:00N 52°10' E 006°19'3 6.0
2017-Oct-12 11:29N 52°10' E 006°24'0 0.0
2017-Oct-12 11:00N 52°10' E 006°24'0 0.0
2017-Oct-12 10:29N 52°10' E 006°24'0 0.0
2017-Oct-12 10:00N 52°10' E 006°24'0 0.0
2017-Oct-12 09:30N 52°10' E 006°24'0 0.0
2017-Oct-12 08:59N 52°10' E 006°24'0 0.0
2017-Oct-12 08:30N 52°10' E 006°24'0 0.0
2017-Oct-12 07:59N 52°10' E 006°24'0 0.0
2017-Oct-12 07:30N 52°10' E 006°24'0 0.0
2017-Oct-12 07:00N 52°10' E 006°24'0 0.0
2017-Oct-12 06:29N 52°10' E 006°24'0 0.0
2017-Oct-12 06:00N 52°10' E 006°24'0 0.0
2017-Oct-12 05:29N 52°10' E 006°24'0 0.0
2017-Oct-12 05:00N 52°10' E 006°24'0 0.0
2017-Oct-12 04:29N 52°10' E 006°24'0 0.0
2017-Oct-12 04:00N 52°10' E 006°24'0 0.0
2017-Oct-12 03:30N 52°10' E 006°24'0 0.0
2017-Oct-12 02:59N 52°10' E 006°24'0 0.0
2017-Oct-12 02:30N 52°10' E 006°24'0 0.0
2017-Oct-12 01:59N 52°10' E 006°24'0 0.0
2017-Oct-12 01:30N 52°10' E 006°24'0 0.0
2017-Oct-12 01:00N 52°10' E 006°24'0 0.0
2017-Oct-12 00:30N 52°10' E 006°24'0 0.0
2017-Oct-12 00:00N 52°10' E 006°24'0 0.0
2017-Oct-11 23:29N 52°10' E 006°24'0 0.0
2017-Oct-11 23:00N 52°10' E 006°24'0 0.0
2017-Oct-11 22:30N 52°10' E 006°24'0 0.0
2017-Oct-11 22:01N 52°10' E 006°24'0 0.0
2017-Oct-11 21:30N 52°10' E 006°24'0 0.0
2017-Oct-11 20:59N 52°10' E 006°24'0 0.0
2017-Oct-11 20:30N 52°10' E 006°24'0 0.0
2017-Oct-11 19:59N 52°10' E 006°24'0 0.0
2017-Oct-11 19:30N 52°10' E 006°24'0 0.0
2017-Oct-11 19:00N 52°10' E 006°24'0 0.0
2017-Oct-11 18:29N 52°10' E 006°24'0 0.0
2017-Oct-11 18:00N 52°10' E 006°24'0 0.0
2017-Oct-11 17:29N 52°10' E 006°24'0 0.0
2017-Oct-11 17:00N 52°10' E 006°24'0 0.0
2017-Oct-11 00:00N 52°10' E 006°24'0 0.0
2017-Oct-10 23:29N 52°10' E 006°24'0 0.0
2017-Oct-10 23:00N 52°10' E 006°24'0 0.0
2017-Oct-10 22:29N 52°10' E 006°24'0 0.0
2017-Oct-10 22:00N 52°10' E 006°24'0 0.0
2017-Oct-10 21:30N 52°10' E 006°24'0 0.0
2017-Oct-10 21:01N 52°10' E 006°24'0 0.0
2017-Oct-10 20:30N 52°10' E 006°24'0 0.0
2017-Oct-10 19:59N 52°10' E 006°24'0 0.0
2017-Oct-10 19:30N 52°10' E 006°24'0 0.0
2017-Oct-10 19:00N 52°10' E 006°24'0 0.0
2017-Oct-10 18:29N 52°10' E 006°24'0 0.0
2017-Oct-10 18:00N 52°10' E 006°24'0 0.0
2017-Oct-10 17:29N 52°10' E 006°24'0 0.0
2017-Oct-10 17:00N 52°10' E 006°24'0 0.0
2017-Oct-10 16:30N 52°10' E 006°24'0 0.0
2017-Oct-10 16:00N 52°10' E 006°24'0 0.0
2017-Oct-10 15:30N 52°10' E 006°24'0 0.0
2017-Oct-10 14:59N 52°10' E 006°24'0 0.0
2017-Oct-10 14:00N 52°10' E 006°24'0 0.0
2017-Oct-10 13:29N 52°10' E 006°24'0 0.0
2017-Oct-10 13:00N 52°10' E 006°24'0 0.0
2017-Oct-10 12:29N 52°10' E 006°24'0 0.0
2017-Oct-10 12:00N 52°10' E 006°24'0 0.0
2017-Oct-10 11:30N 52°10' E 006°24'0 0.0
2017-Oct-10 10:59N 52°10' E 006°24'0 0.0
2017-Oct-10 10:30N 52°10' E 006°24'0 0.0
2017-Oct-10 09:59N 52°10' E 006°24'0 0.0
2017-Oct-10 09:30N 52°10' E 006°24'0 0.0
2017-Oct-10 09:00N 52°10' E 006°24'0 0.0
2017-Oct-10 08:29N 52°10' E 006°24'0 0.0
2017-Oct-10 08:00N 52°10' E 006°24'0 0.0
2017-Oct-10 07:29N 52°10' E 006°24'0 0.0
2017-Oct-10 07:00N 52°10' E 006°24'2 3.6
2017-Oct-10 06:30N 52°10' E 006°21'3 5.2
2017-Oct-10 05:59N 52°10' E 006°16'1 2.0
2017-Oct-10 05:30N 52°10' E 006°15'0 0.0
2017-Oct-10 05:00N 52°10' E 006°15'0 0.0
2017-Oct-10 04:29N 52°10' E 006°15'0 0.0
2017-Oct-10 04:00N 52°10' E 006°15'0 0.0
2017-Oct-10 03:29N 52°10' E 006°15'0 0.0
2017-Oct-10 03:00N 52°10' E 006°15'0 0.0
2017-Oct-10 02:30N 52°10' E 006°15'0 0.0
2017-Oct-10 01:59N 52°10' E 006°15'0 0.0
2017-Oct-10 01:30N 52°10' E 006°15'0 0.0
2017-Oct-10 01:00N 52°10' E 006°15'0 0.0
2017-Oct-10 00:31N 52°10' E 006°15'0 0.0
2017-Oct-10 00:00N 52°10' E 006°15'0 0.0
2017-Oct-09 23:29N 52°10' E 006°15'0 0.0
2017-Oct-09 23:00N 52°10' E 006°15'0 0.0
2017-Oct-09 22:30N 52°10' E 006°15'0 0.0
2017-Oct-09 21:59N 52°10' E 006°15'0 0.0
2017-Oct-09 21:30N 52°10' E 006°15'0 0.0
2017-Oct-09 20:59N 52°10' E 006°15'0 0.0
2017-Oct-09 20:30N 52°10' E 006°15'0 0.0
2017-Oct-09 20:00N 52°10' E 006°15'0 0.0
2017-Oct-09 19:29N 52°10' E 006°15'0 0.0
2017-Oct-09 19:00N 52°10' E 006°15'0 0.0
2017-Oct-09 18:29N 52°10' E 006°15'0 0.0
2017-Oct-09 18:00N 52°10' E 006°15'0 0.0
2017-Oct-09 17:30N 52°10' E 006°15'2 2.5
2017-Oct-09 16:40N 52°10' E 006°12'1 7.1
2017-Oct-09 16:30N 52°09' E 006°11'3 6.8
2017-Oct-09 16:00N 52°06' E 006°13'4 7.4
2017-Oct-09 15:30N 52°04' E 006°08'3 6.6
2017-Oct-09 15:00N 52°00' E 006°07'3 5.3
2017-Oct-09 14:30N 52°00' E 006°03'4 7.9
2017-Oct-09 14:00N 51°58' E 005°57'4 7.7
2017-Oct-09 13:30N 51°54' E 005°60'4 8.5
2017-Oct-09 13:00N 51°52' E 006°05'5 9.9
2017-Oct-09 12:30N 51°50' E 006°12'5 9.5
2017-Oct-09 12:00N 51°48' E 006°19'4 8.6
2017-Oct-09 11:30N 51°45' E 006°25'4 8.2
2017-Oct-09 11:00N 51°42' E 006°28'4 8.7
2017-Oct-09 10:30N 51°40' E 006°34'4 8.2
2017-Oct-09 10:00N 51°36' E 006°36'4 7.3
2017-Oct-09 09:30N 51°34' E 006°41'4 8.7
2017-Oct-09 09:00N 51°30' E 006°43'3 6.2
2017-Oct-09 08:30N 51°27' E 006°43'4 8.5
2017-Oct-09 08:00N 51°23' E 006°43'6 6.5
2017-Oct-09 07:07N 51°17' E 006°42'2 9.0
2017-Oct-09 06:55N 51°15' E 006°44'2 3.8
2017-Oct-09 06:30N 51°14' E 006°44'3 6.7
2017-Oct-09 06:00N 51°11' E 006°47'3 5.0
2017-Oct-09 05:30N 51°10' E 006°50'10 7.9
2017-Oct-09 04:11N 51°00' E 006°58'3 8.9
2017-Oct-09 03:53N 50°58' E 006°60'4 8.8
2017-Oct-09 03:27N 50°54' E 006°59'3 5.9
2017-Oct-09 02:57N 50°52' E 007°01'3 6.1
2017-Oct-09 02:29N 50°49' E 007°02'4 8.0
2017-Oct-09 02:00N 50°46' E 007°05'0 0.0
2017-Oct-09 01:30N 50°46' E 007°05'0 0.0
2017-Oct-09 01:00N 50°46' E 007°05'0 0.0
2017-Oct-09 00:30N 50°46' E 007°05'0 0.0
2017-Oct-09 00:00N 50°46' E 007°05'0 0.0
2017-Oct-08 23:30N 50°46' E 007°05'0 0.0
2017-Oct-08 22:59N 50°46' E 007°05'0 0.0
2017-Oct-08 22:30N 50°46' E 007°05'0 0.0
2017-Oct-08 22:00N 50°46' E 007°05'0 0.0
2017-Oct-08 21:27N 50°46' E 007°05'0 0.0
2017-Oct-08 21:00N 50°46' E 007°05'  
Track history (hours):
 
Tides and Currents Weather Stations Pressure Air Temp Water Temp Dewpoint Dewpoint Depression Visibility Wind Speed Wind Dir Waves Ship Positions

Audrey

Last reported at 2017-Oct-18 20:30 UTC. Time now 2017-Oct-18 20:38 UTC.
Position N 51°27' E 004°14'.

Length 85 m; draft 1.5 m.

Type: Wing in ground effect craft. MMSI: 244660106.

Date/timePositionNaut miles runAvg speedWind from/ knotsBaromVisibWave heightAir tempDewpointWater temp
2017-Oct-18 20:30N 51°27' E 004°14'0 0.0
2017-Oct-18 20:00N 51°27' E 004°14'1 1.1
2017-Oct-18 19:28N 51°27' E 004°14'3 6.2
2017-Oct-18 19:00N 51°24' E 004°14'4 7.2
2017-Oct-18 18:30N 51°21' E 004°18'1 1.7
2017-Oct-18 18:00N 51°22' E 004°17'0 0.0
2017-Oct-18 17:30N 51°22' E 004°17'0 0.0
2017-Oct-18 17:00N 51°22' E 004°17'0 0.0
2017-Oct-18 16:30N 51°22' E 004°17'0 0.0
2017-Oct-18 16:00N 51°22' E 004°17'0 0.0
2017-Oct-18 15:30N 51°22' E 004°17'0 0.0
2017-Oct-18 14:59N 51°22' E 004°17'0 0.0
2017-Oct-18 14:00N 51°22' E 004°17'0 0.2
2017-Oct-18 13:30N 51°22' E 004°17'1 1.1
2017-Oct-18 13:00N 51°22' E 004°18'4 8.0
2017-Oct-18 12:29N 51°25' E 004°14'2 4.3
2017-Oct-18 11:57N 51°27' E 004°14'4 8.2
2017-Oct-18 11:30N 51°31' E 004°13'5 8.4
2017-Oct-18 10:53N 51°36' E 004°11'5 8.7
2017-Oct-18 10:20N 51°39' E 004°17'4 8.8
2017-Oct-18 09:53N 51°41' E 004°23'1 3.1
2017-Oct-18 09:27N 51°42' E 004°25'4 8.4
2017-Oct-18 09:00N 51°42' E 004°31'4 9.0
2017-Oct-18 08:30N 51°43' E 004°37'4 8.1
2017-Oct-18 08:01N 51°47' E 004°37'2 4.0
2017-Oct-18 07:31N 51°49' E 004°40'0 0.0
2017-Oct-18 07:00N 51°49' E 004°40'0 0.0
2017-Oct-18 06:30N 51°49' E 004°40'1 2.1
2017-Oct-18 06:00N 51°49' E 004°41'4 8.7
2017-Oct-18 05:30N 51°49' E 004°48'3 6.3
2017-Oct-18 05:00N 51°49' E 004°53'0 0.7
2017-Oct-18 04:30N 51°49' E 004°53'0 0.0
2017-Oct-18 04:00N 51°49' E 004°53'0 0.0
2017-Oct-18 03:30N 51°49' E 004°53'0 0.0
2017-Oct-18 03:00N 51°49' E 004°53'0 0.0
2017-Oct-18 02:30N 51°49' E 004°53'0 0.0
2017-Oct-18 02:00N 51°49' E 004°53'0 0.0
2017-Oct-18 01:30N 51°49' E 004°53'0 0.0
2017-Oct-18 01:00N 51°49' E 004°53'0 0.0
2017-Oct-18 00:30N 51°49' E 004°53'0 0.0
2017-Oct-18 00:00N 51°49' E 004°53'0 0.0
2017-Oct-17 23:30N 51°49' E 004°53'0 0.0
2017-Oct-17 23:00N 51°49' E 004°53'0 0.0
2017-Oct-17 22:30N 51°49' E 004°53'0 0.0
2017-Oct-17 22:00N 51°49' E 004°53'0 0.0
2017-Oct-17 21:30N 51°49' E 004°53'0 0.0
2017-Oct-17 21:00N 51°49' E 004°53'0 0.0
2017-Oct-17 20:30N 51°49' E 004°53'0 0.0
2017-Oct-17 20:00N 51°49' E 004°53'0 0.0
2017-Oct-17 19:30N 51°49' E 004°53'0 0.0
2017-Oct-17 19:00N 51°49' E 004°53'0 0.0
2017-Oct-17 18:30N 51°49' E 004°53'0 0.0
2017-Oct-17 18:00N 51°49' E 004°53'0 0.0
2017-Oct-17 17:30N 51°49' E 004°53'0 0.0
2017-Oct-17 17:00N 51°49' E 004°53'0 0.0
2017-Oct-17 16:30N 51°49' E 004°53'0 0.0
2017-Oct-17 16:00N 51°49' E 004°53'0 0.0
2017-Oct-17 15:30N 51°49' E 004°53'0 0.0
2017-Oct-17 15:00N 51°49' E 004°53'0 0.0
2017-Oct-17 14:30N 51°49' E 004°53'0 0.0
2017-Oct-17 14:00N 51°49' E 004°53'0 0.0
2017-Oct-17 13:29N 51°49' E 004°53'0 0.0
2017-Oct-17 13:00N 51°49' E 004°53'0 0.0
2017-Oct-17 12:30N 51°49' E 004°53'0 0.0
2017-Oct-17 12:00N 51°49' E 004°53'0 0.0
2017-Oct-17 11:30N 51°49' E 004°53'0 0.0
2017-Oct-17 11:00N 51°49' E 004°53'0 0.0
2017-Oct-17 10:24N 51°49' E 004°53'0 0.0
2017-Oct-17 10:00N 51°49' E 004°53'0 0.0
2017-Oct-17 09:30N 51°49' E 004°53'0 0.0
2017-Oct-17 09:00N 51°49' E 004°53'0 0.0
2017-Oct-17 08:28N 51°49' E 004°53'0 0.0
2017-Oct-17 08:00N 51°49' E 004°53'0 0.0
2017-Oct-17 07:29N 51°49' E 004°53'0 0.0
2017-Oct-17 07:00N 51°49' E 004°53'0 0.0
2017-Oct-17 06:27N 51°49' E 004°53'0 0.0
2017-Oct-17 06:00N 51°49' E 004°53'0 0.0
2017-Oct-17 05:30N 51°49' E 004°53'0 0.0
2017-Oct-17 04:59N 51°49' E 004°53'0 0.0
2017-Oct-17 04:30N 51°49' E 004°53'0 0.0
2017-Oct-17 04:00N 51°49' E 004°53'0 0.0
2017-Oct-17 03:30N 51°49' E 004°53'0 0.0
2017-Oct-17 03:00N 51°49' E 004°53'0 0.0
2017-Oct-17 02:30N 51°49' E 004°53'0 0.0
2017-Oct-17 02:00N 51°49' E 004°53'0 0.0
2017-Oct-17 01:30N 51°49' E 004°53'0 0.0
2017-Oct-17 01:00N 51°49' E 004°53'0 0.0
2017-Oct-17 00:30N 51°49' E 004°53'0 0.0
2017-Oct-17 00:00N 51°49' E 004°53'0 0.0
2017-Oct-16 23:30N 51°49' E 004°53'0 0.0
2017-Oct-16 23:00N 51°49' E 004°53'0 0.0
2017-Oct-16 22:30N 51°49' E 004°53'0 0.0
2017-Oct-16 22:00N 51°49' E 004°53'0 0.0
2017-Oct-16 21:30N 51°49' E 004°53'0 0.0
2017-Oct-16 21:00N 51°49' E 004°53'0 0.0
2017-Oct-16 20:30N 51°49' E 004°53'0 0.0
2017-Oct-16 20:00N 51°49' E 004°53'0 0.0
2017-Oct-16 19:30N 51°49' E 004°53'0 0.0
2017-Oct-16 19:00N 51°49' E 004°53'0 0.0
2017-Oct-16 18:30N 51°49' E 004°53'0 0.0
2017-Oct-16 18:00N 51°49' E 004°53'0 0.0
2017-Oct-16 17:30N 51°49' E 004°53'0 0.0
2017-Oct-16 17:00N 51°49' E 004°53'0 0.0
2017-Oct-16 16:30N 51°49' E 004°53'0 0.0
2017-Oct-16 16:00N 51°49' E 004°53'0 0.0
2017-Oct-16 15:30N 51°49' E 004°53'0 0.0
2017-Oct-16 15:00N 51°49' E 004°53'0 0.0
2017-Oct-16 14:00N 51°49' E 004°53'0 0.0
2017-Oct-16 13:30N 51°49' E 004°53'0 0.0
2017-Oct-16 13:00N 51°49' E 004°53'0 0.0
2017-Oct-16 12:30N 51°49' E 004°53'0 0.0
2017-Oct-16 12:00N 51°49' E 004°53'0 0.0
2017-Oct-16 11:30N 51°49' E 004°53'0 0.0
2017-Oct-16 11:00N 51°49' E 004°53'0 0.0
2017-Oct-16 10:30N 51°49' E 004°53'0 0.0
2017-Oct-16 10:00N 51°49' E 004°53'0 0.0
2017-Oct-16 09:30N 51°49' E 004°53'0 0.0
2017-Oct-16 09:00N 51°49' E 004°53'0 0.0
2017-Oct-16 08:30N 51°49' E 004°53'0 0.0
2017-Oct-16 08:00N 51°49' E 004°53'0 0.0
2017-Oct-16 07:30N 51°49' E 004°53'0 0.0
2017-Oct-16 06:58N 51°49' E 004°53'0 0.0
2017-Oct-16 06:30N 51°49' E 004°53'0 0.0
2017-Oct-16 06:00N 51°49' E 004°53'0 0.0
2017-Oct-16 05:30N 51°49' E 004°53'0 0.0
2017-Oct-16 05:00N 51°49' E 004°53'0 0.0
2017-Oct-16 04:30N 51°49' E 004°53'0 0.0
2017-Oct-16 04:00N 51°49' E 004°53'0 0.0
2017-Oct-16 03:30N 51°49' E 004°53'0 0.0
2017-Oct-16 03:00N 51°49' E 004°53'0 0.0
2017-Oct-16 02:30N 51°49' E 004°53'0 0.0
2017-Oct-16 02:00N 51°49' E 004°53'0 0.0
2017-Oct-16 01:30N 51°49' E 004°53'0 0.0
2017-Oct-16 01:00N 51°49' E 004°53'0 0.0
2017-Oct-16 00:30N 51°49' E 004°53'0 0.0
2017-Oct-16 00:00N 51°49' E 004°53'0 0.0
2017-Oct-15 23:30N 51°49' E 004°53'0 0.0
2017-Oct-15 23:00N 51°49' E 004°53'0 0.0
2017-Oct-15 22:30N 51°49' E 004°53'0 0.0
2017-Oct-15 22:00N 51°49' E 004°53'0 0.0
2017-Oct-15 21:30N 51°49' E 004°53'0 0.0
2017-Oct-15 21:00N 51°49' E 004°53'0 0.0
2017-Oct-15 20:30N 51°49' E 004°53'0 0.0
2017-Oct-15 20:00N 51°49' E 004°53'0 0.0
2017-Oct-15 19:30N 51°49' E 004°53'0 0.0
2017-Oct-15 19:00N 51°49' E 004°53'0 0.0
2017-Oct-15 18:30N 51°49' E 004°53'0 0.0
2017-Oct-15 18:00N 51°49' E 004°53'0 0.0
2017-Oct-15 17:30N 51°49' E 004°53'0 0.0
2017-Oct-15 17:00N 51°49' E 004°53'0 0.0
2017-Oct-15 16:30N 51°49' E 004°53'0 0.0
2017-Oct-15 16:00N 51°49' E 004°53'0 0.0
2017-Oct-15 15:30N 51°49' E 004°53'0 0.0
2017-Oct-15 15:00N 51°49' E 004°53'0 0.0
2017-Oct-15 14:00N 51°49' E 004°53'0 0.0
2017-Oct-15 13:30N 51°49' E 004°53'0 0.0
2017-Oct-15 13:00N 51°49' E 004°53'0 0.0
2017-Oct-15 12:30N 51°49' E 004°53'0 0.0
2017-Oct-15 12:00N 51°49' E 004°53'0 0.0
2017-Oct-15 11:30N 51°49' E 004°53'0 0.0
2017-Oct-15 11:00N 51°49' E 004°53'0 0.0
2017-Oct-15 10:30N 51°49' E 004°53'0 0.0
2017-Oct-15 10:00N 51°49' E 004°53'0 0.0
2017-Oct-15 09:30N 51°49' E 004°53'0 0.0
2017-Oct-15 09:00N 51°49' E 004°53'0 0.0
2017-Oct-15 08:30N 51°49' E 004°53'0 0.0
2017-Oct-15 08:00N 51°49' E 004°53'0 0.0
2017-Oct-15 07:30N 51°49' E 004°53'0 0.0
2017-Oct-15 07:00N 51°49' E 004°53'0 0.0
2017-Oct-15 06:30N 51°49' E 004°53'0 0.0
2017-Oct-15 06:00N 51°49' E 004°53'0 0.0
2017-Oct-15 05:30N 51°49' E 004°53'0 0.0
2017-Oct-15 05:00N 51°49' E 004°53'0 0.0
2017-Oct-15 04:30N 51°49' E 004°53'0 0.0
2017-Oct-15 04:00N 51°49' E 004°53'0 0.0
2017-Oct-15 03:30N 51°49' E 004°53'0 0.0
2017-Oct-15 03:00N 51°49' E 004°53'0 0.0
2017-Oct-15 02:29N 51°49' E 004°53'0 0.0
2017-Oct-15 02:00N 51°49' E 004°53'0 0.0
2017-Oct-15 01:30N 51°49' E 004°53'0 0.0
2017-Oct-15 01:00N 51°49' E 004°53'0 0.0
2017-Oct-15 00:30N 51°49' E 004°53'0 0.0
2017-Oct-15 00:00N 51°49' E 004°53'0 0.0
2017-Oct-14 23:30N 51°49' E 004°53'0 0.0
2017-Oct-14 23:00N 51°49' E 004°53'0 0.0
2017-Oct-14 22:30N 51°49' E 004°53'0 0.0
2017-Oct-14 22:00N 51°49' E 004°53'0 0.0
2017-Oct-14 21:30N 51°49' E 004°53'0 0.0
2017-Oct-14 21:00N 51°49' E 004°53'0 0.0
2017-Oct-14 20:30N 51°49' E 004°53'0 0.0
2017-Oct-14 20:00N 51°49' E 004°53'0 0.0
2017-Oct-14 19:30N 51°49' E 004°53'0 0.0
2017-Oct-14 19:00N 51°49' E 004°53'0 0.0
2017-Oct-14 18:29N 51°49' E 004°53'0 0.0
2017-Oct-14 18:00N 51°49' E 004°53'0 0.0
2017-Oct-14 17:30N 51°49' E 004°53'0 0.0
2017-Oct-14 17:00N 51°49' E 004°53'0 0.0
2017-Oct-14 16:30N 51°49' E 004°53'0 0.0
2017-Oct-14 16:00N 51°49' E 004°53'0 0.0
2017-Oct-14 15:29N 51°49' E 004°53'0 0.0
2017-Oct-14 15:00N 51°49' E 004°53'0 0.0
2017-Oct-14 14:30N 51°49' E 004°53'0 0.0
2017-Oct-14 14:00N 51°49' E 004°53'0 0.0
2017-Oct-14 13:30N 51°49' E 004°53'0 0.0
2017-Oct-14 13:00N 51°49' E 004°53'0 0.0
2017-Oct-14 12:30N 51°49' E 004°53'0 0.0
2017-Oct-14 12:00N 51°49' E 004°53'0 0.0
2017-Oct-14 11:30N 51°49' E 004°53'0 0.0
2017-Oct-14 11:00N 51°49' E 004°53'0 0.0
2017-Oct-14 10:30N 51°49' E 004°53'0 0.0
2017-Oct-14 10:00N 51°49' E 004°53'0 0.0
2017-Oct-14 09:30N 51°49' E 004°53'0 0.0
2017-Oct-14 09:00N 51°49' E 004°53'0 0.0
2017-Oct-14 08:30N 51°49' E 004°53'0 0.0
2017-Oct-14 08:00N 51°49' E 004°53'0 0.0
2017-Oct-14 07:30N 51°49' E 004°53'0 0.0
2017-Oct-14 07:00N 51°49' E 004°53'0 0.0
2017-Oct-14 06:29N 51°49' E 004°53'0 0.0
2017-Oct-14 06:00N 51°49' E 004°53'0 0.0
2017-Oct-14 05:30N 51°49' E 004°53'0 0.0
2017-Oct-14 05:00N 51°49' E 004°53'0 0.0
2017-Oct-14 04:30N 51°49' E 004°53'0 0.0
2017-Oct-14 04:00N 51°49' E 004°53'0 0.0
2017-Oct-14 03:30N 51°49' E 004°53'0 0.0
2017-Oct-14 03:00N 51°49' E 004°53'0 0.0
2017-Oct-14 02:30N 51°49' E 004°53'0 0.0
2017-Oct-14 02:00N 51°49' E 004°53'0 0.0
2017-Oct-14 01:30N 51°49' E 004°53'0 0.0
2017-Oct-14 01:00N 51°49' E 004°53'0 0.0
2017-Oct-14 00:30N 51°49' E 004°53'0 0.0
2017-Oct-14 00:00N 51°49' E 004°53'0 0.0
2017-Oct-13 23:30N 51°49' E 004°53'0 0.0
2017-Oct-13 23:00N 51°49' E 004°53'0 0.0
2017-Oct-13 22:30N 51°49' E 004°53'0 0.0
2017-Oct-13 22:00N 51°49' E 004°53'0 0.0
2017-Oct-13 21:30N 51°49' E 004°53'0 0.0
2017-Oct-13 21:00N 51°49' E 004°53'0 0.0
2017-Oct-13 20:30N 51°49' E 004°53'0 0.0
2017-Oct-13 20:00N 51°49' E 004°53'0 0.0
2017-Oct-13 19:30N 51°49' E 004°53'0 0.0
2017-Oct-13 19:00N 51°49' E 004°53'0 0.0
2017-Oct-13 18:30N 51°49' E 004°53'0 0.0
2017-Oct-13 18:00N 51°49' E 004°53'0 0.0
2017-Oct-13 17:30N 51°49' E 004°53'0 0.0
2017-Oct-13 17:00N 51°49' E 004°53'0 0.0
2017-Oct-13 16:30N 51°49' E 004°53'0 0.0
2017-Oct-13 16:00N 51°49' E 004°53'0 0.0
2017-Oct-13 15:30N 51°49' E 004°53'0 0.0
2017-Oct-13 15:00N 51°49' E 004°53'0 0.0
2017-Oct-13 14:30N 51°49' E 004°53'0 0.0
2017-Oct-13 14:00N 51°49' E 004°53'0 0.2
2017-Oct-13 13:30N 51°49' E 004°53'0 0.0
2017-Oct-13 13:00N 51°49' E 004°53'0 0.0
2017-Oct-13 12:30N 51°49' E 004°53'0 0.0
2017-Oct-13 12:00N 51°49' E 004°53'0 0.0
2017-Oct-13 11:30N 51°49' E 004°53'0 0.0
2017-Oct-13 11:00N 51°49' E 004°53'0 0.0
2017-Oct-13 10:30N 51°49' E 004°53'0 0.0
2017-Oct-13 10:00N 51°49' E 004°53'2 3.9
2017-Oct-13 09:30N 51°50' E 004°56'5 8.9
2017-Oct-13 08:57N 51°49' E 005°04'4 9.2
2017-Oct-13 08:30N 51°49' E 005°10'5 9.0
2017-Oct-13 07:59N 51°49' E 005°18'4 7.0
2017-Oct-13 07:27N 51°50' E 005°24'4 9.1
2017-Oct-13 06:59N 51°53' E 005°28'5 9.6
2017-Oct-13 06:30N 51°54' E 005°36'5 9.8
2017-Oct-13 06:00N 51°53' E 005°43'5 9.7
2017-Oct-13 05:30N 51°51' E 005°51'4 7.8
2017-Oct-13 05:00N 51°52' E 005°57'4 7.3
2017-Oct-13 04:30N 51°52' E 006°03'1 2.6
2017-Oct-13 04:00N 51°53' E 006°01'0 0.0
2017-Oct-13 03:30N 51°53' E 006°01'0 0.0
2017-Oct-13 03:00N 51°53' E 006°01'0 0.0
2017-Oct-13 02:30N 51°53' E 006°01'0 0.0
2017-Oct-13 02:00N 51°53' E 006°01'0 0.0
2017-Oct-13 01:30N 51°53' E 006°01'0 0.0
2017-Oct-13 01:00N 51°53' E 006°01'0 0.0
2017-Oct-13 00:30N 51°53' E 006°01'0 0.0
2017-Oct-13 00:00N 51°53' E 006°01'0 0.0
2017-Oct-12 23:30N 51°53' E 006°01'0 0.0
2017-Oct-12 23:00N 51°53' E 006°01'0 0.0
2017-Oct-12 22:30N 51°53' E 006°01'0 0.0
2017-Oct-12 22:00N 51°53' E 006°01'0 0.0
2017-Oct-12 21:30N 51°53' E 006°01'0 0.0
2017-Oct-12 21:00N 51°53' E 006°01'0 0.0
2017-Oct-12 20:30N 51°53' E 006°01'0 0.0
2017-Oct-12 20:00N 51°53' E 006°01'0 0.0
2017-Oct-12 19:30N 51°53' E 006°01'0 0.0
2017-Oct-12 19:00N 51°53' E 006°01'0 0.0
2017-Oct-12 18:30N 51°53' E 006°01'1 1.6
2017-Oct-12 18:00N 51°54' E 006°01'4 8.0
2017-Oct-12 17:30N 51°57' E 005°57'3 5.8
2017-Oct-12 17:00N 51°59' E 006°00'3 5.7
2017-Oct-12 16:30N 52°01' E 006°04'2 4.1
2017-Oct-12 16:00N 52°01' E 006°08'3 5.4
2017-Oct-12 15:30N 52°03' E 006°08'3 6.5
2017-Oct-12 15:00N 52°06' E 006°12'2 4.3
2017-Oct-12 14:30N 52°08' E 006°11'3 1.6
2017-Oct-12 12:17N 52°10' E 006°16'2 6.7
2017-Oct-12 12:00N 52°10' E 006°19'3 6.0
2017-Oct-12 11:29N 52°10' E 006°24'0 0.0
2017-Oct-12 11:00N 52°10' E 006°24'0 0.0
2017-Oct-12 10:29N 52°10' E 006°24'0 0.0
2017-Oct-12 10:00N 52°10' E 006°24'0 0.0
2017-Oct-12 09:30N 52°10' E 006°24'0 0.0
2017-Oct-12 08:59N 52°10' E 006°24'0 0.0
2017-Oct-12 08:30N 52°10' E 006°24'0 0.0
2017-Oct-12 07:59N 52°10' E 006°24'0 0.0
2017-Oct-12 07:30N 52°10' E 006°24'0 0.0
2017-Oct-12 07:00N 52°10' E 006°24'0 0.0
2017-Oct-12 06:29N 52°10' E 006°24'0 0.0
2017-Oct-12 06:00N 52°10' E 006°24'0 0.0
2017-Oct-12 05:29N 52°10' E 006°24'0 0.0
2017-Oct-12 05:00N 52°10' E 006°24'0 0.0
2017-Oct-12 04:29N 52°10' E 006°24'0 0.0
2017-Oct-12 04:00N 52°10' E 006°24'0 0.0
2017-Oct-12 03:30N 52°10' E 006°24'0 0.0
2017-Oct-12 02:59N 52°10' E 006°24'0 0.0
2017-Oct-12 02:30N 52°10' E 006°24'0 0.0
2017-Oct-12 01:59N 52°10' E 006°24'0 0.0
2017-Oct-12 01:30N 52°10' E 006°24'0 0.0
2017-Oct-12 01:00N 52°10' E 006°24'0 0.0
2017-Oct-12 00:30N 52°10' E 006°24'0 0.0
2017-Oct-12 00:00N 52°10' E 006°24'0 0.0
2017-Oct-11 23:29N 52°10' E 006°24'0 0.0
2017-Oct-11 23:00N 52°10' E 006°24'0 0.0
2017-Oct-11 22:30N 52°10' E 006°24'0 0.0
2017-Oct-11 22:01N 52°10' E 006°24'0 0.0
2017-Oct-11 21:30N 52°10' E 006°24'0 0.0
2017-Oct-11 20:59N 52°10' E 006°24'0 0.0
2017-Oct-11 20:30N 52°10' E 006°24'0 0.0
2017-Oct-11 19:59N 52°10' E 006°24'0 0.0
2017-Oct-11 19:30N 52°10' E 006°24'0 0.0
2017-Oct-11 19:00N 52°10' E 006°24'0 0.0
2017-Oct-11 18:29N 52°10' E 006°24'0 0.0
2017-Oct-11 18:00N 52°10' E 006°24'0 0.0
2017-Oct-11 17:29N 52°10' E 006°24'0 0.0
2017-Oct-11 17:00N 52°10' E 006°24'0 0.0
2017-Oct-11 00:00N 52°10' E 006°24'0 0.0
2017-Oct-10 23:29N 52°10' E 006°24'0 0.0
2017-Oct-10 23:00N 52°10' E 006°24'0 0.0
2017-Oct-10 22:29N 52°10' E 006°24'0 0.0
2017-Oct-10 22:00N 52°10' E 006°24'0 0.0
2017-Oct-10 21:30N 52°10' E 006°24'0 0.0
2017-Oct-10 21:01N 52°10' E 006°24'0 0.0
2017-Oct-10 20:30N 52°10' E 006°24'0 0.0
2017-Oct-10 19:59N 52°10' E 006°24'0 0.0
2017-Oct-10 19:30N 52°10' E 006°24'0 0.0
2017-Oct-10 19:00N 52°10' E 006°24'0 0.0
2017-Oct-10 18:29N 52°10' E 006°24'0 0.0
2017-Oct-10 18:00N 52°10' E 006°24'0 0.0
2017-Oct-10 17:29N 52°10' E 006°24'0 0.0
2017-Oct-10 17:00N 52°10' E 006°24'0 0.0
2017-Oct-10 16:30N 52°10' E 006°24'0 0.0
2017-Oct-10 16:00N 52°10' E 006°24'0 0.0
2017-Oct-10 15:30N 52°10' E 006°24'0 0.0
2017-Oct-10 14:59N 52°10' E 006°24'0 0.0
2017-Oct-10 14:00N 52°10' E 006°24'0 0.0
2017-Oct-10 13:29N 52°10' E 006°24'0 0.0
2017-Oct-10 13:00N 52°10' E 006°24'0 0.0
2017-Oct-10 12:29N 52°10' E 006°24'0 0.0
2017-Oct-10 12:00N 52°10' E 006°24'0 0.0
2017-Oct-10 11:30N 52°10' E 006°24'0 0.0
2017-Oct-10 10:59N 52°10' E 006°24'0 0.0
2017-Oct-10 10:30N 52°10' E 006°24'0 0.0
2017-Oct-10 09:59N 52°10' E 006°24'0 0.0
2017-Oct-10 09:30N 52°10' E 006°24'0 0.0
2017-Oct-10 09:00N 52°10' E 006°24'0 0.0
2017-Oct-10 08:29N 52°10' E 006°24'0 0.0
2017-Oct-10 08:00N 52°10' E 006°24'0 0.0
2017-Oct-10 07:29N 52°10' E 006°24'0 0.0
2017-Oct-10 07:00N 52°10' E 006°24'2 3.6
2017-Oct-10 06:30N 52°10' E 006°21'3 5.2
2017-Oct-10 05:59N 52°10' E 006°16'1 2.0
2017-Oct-10 05:30N 52°10' E 006°15'0 0.0
2017-Oct-10 05:00N 52°10' E 006°15'0 0.0
2017-Oct-10 04:29N 52°10' E 006°15'0 0.0
2017-Oct-10 04:00N 52°10' E 006°15'0 0.0
2017-Oct-10 03:29N 52°10' E 006°15'0 0.0
2017-Oct-10 03:00N 52°10' E 006°15'0 0.0
2017-Oct-10 02:30N 52°10' E 006°15'0 0.0
2017-Oct-10 01:59N 52°10' E 006°15'0 0.0
2017-Oct-10 01:30N 52°10' E 006°15'0 0.0
2017-Oct-10 01:00N 52°10' E 006°15'0 0.0
2017-Oct-10 00:31N 52°10' E 006°15'0 0.0
2017-Oct-10 00:00N 52°10' E 006°15'0 0.0
2017-Oct-09 23:29N 52°10' E 006°15'0 0.0
2017-Oct-09 23:00N 52°10' E 006°15'0 0.0
2017-Oct-09 22:30N 52°10' E 006°15'0 0.0
2017-Oct-09 21:59N 52°10' E 006°15'0 0.0
2017-Oct-09 21:30N 52°10' E 006°15'0 0.0
2017-Oct-09 20:59N 52°10' E 006°15'0 0.0
2017-Oct-09 20:30N 52°10' E 006°15'0 0.0
2017-Oct-09 20:00N 52°10' E 006°15'0 0.0
2017-Oct-09 19:29N 52°10' E 006°15'0 0.0
2017-Oct-09 19:00N 52°10' E 006°15'0 0.0
2017-Oct-09 18:29N 52°10' E 006°15'0 0.0
2017-Oct-09 18:00N 52°10' E 006°15'0 0.0
2017-Oct-09 17:30N 52°10' E 006°15'2 2.5
2017-Oct-09 16:40N 52°10' E 006°12'1 7.1
2017-Oct-09 16:30N 52°09' E 006°11'3 6.8
2017-Oct-09 16:00N 52°06' E 006°13'4 7.4
2017-Oct-09 15:30N 52°04' E 006°08'3 6.6
2017-Oct-09 15:00N 52°00' E 006°07'3 5.3
2017-Oct-09 14:30N 52°00' E 006°03'4 7.9
2017-Oct-09 14:00N 51°58' E 005°57'4 7.7
2017-Oct-09 13:30N 51°54' E 005°60'4 8.5
2017-Oct-09 13:00N 51°52' E 006°05'5 9.9
2017-Oct-09 12:30N 51°50' E 006°12'5 9.5
2017-Oct-09 12:00N 51°48' E 006°19'4 8.6
2017-Oct-09 11:30N 51°45' E 006°25'4 8.2
2017-Oct-09 11:00N 51°42' E 006°28'4 8.7
2017-Oct-09 10:30N 51°40' E 006°34'4 8.2
2017-Oct-09 10:00N 51°36' E 006°36'4 7.3
2017-Oct-09 09:30N 51°34' E 006°41'4 8.7
2017-Oct-09 09:00N 51°30' E 006°43'3 6.2
2017-Oct-09 08:30N 51°27' E 006°43'4 8.5
2017-Oct-09 08:00N 51°23' E 006°43'6 6.5
2017-Oct-09 07:07N 51°17' E 006°42'2 9.0
2017-Oct-09 06:55N 51°15' E 006°44'2 3.8
2017-Oct-09 06:30N 51°14' E 006°44'3 6.7
2017-Oct-09 06:00N 51°11' E 006°47'3 5.0
2017-Oct-09 05:30N 51°10' E 006°50'10 7.9
2017-Oct-09 04:11N 51°00' E 006°58'3 8.9
2017-Oct-09 03:53N 50°58' E 006°60'4 8.8
2017-Oct-09 03:27N 50°54' E 006°59'3 5.9
2017-Oct-09 02:57N 50°52' E 007°01'3 6.1
2017-Oct-09 02:29N 50°49' E 007°02'4 8.0
2017-Oct-09 02:00N 50°46' E 007°05'0 0.0
2017-Oct-09 01:30N 50°46' E 007°05'0 0.0
2017-Oct-09 01:00N 50°46' E 007°05'0 0.0
2017-Oct-09 00:30N 50°46' E 007°05'0 0.0
2017-Oct-09 00:00N 50°46' E 007°05'0 0.0
2017-Oct-08 23:30N 50°46' E 007°05'0 0.0
2017-Oct-08 22:59N 50°46' E 007°05'0 0.0
2017-Oct-08 22:30N 50°46' E 007°05'0 0.0
2017-Oct-08 22:00N 50°46' E 007°05'0 0.0
2017-Oct-08 21:27N 50°46' E 007°05'0 0.0
2017-Oct-08 21:00N 50°46' E 007°05'  

Dump ship's entire track history